sensor_id;sensor_type;location;lat;lon;timestamp;pressure;altitude;pressure_sealevel;temperature;humidity
8705;BME280;4389;41.932;25.904;2022-11-20T00:00:41;100178.50;;;18.85;94.79
8705;BME280;4389;41.932;25.904;2022-11-20T00:03:08;100184.25;;;18.82;94.73
8705;BME280;4389;41.932;25.904;2022-11-20T00:05:35;100179.81;;;18.95;94.17
8705;BME280;4389;41.932;25.904;2022-11-20T00:08:02;100186.84;;;19.03;93.55
8705;BME280;4389;41.932;25.904;2022-11-20T00:10:31;100180.09;;;19.07;93.25
8705;BME280;4389;41.932;25.904;2022-11-20T00:12:58;100184.84;;;19.11;92.94
8705;BME280;4389;41.932;25.904;2022-11-20T00:15:25;100185.09;;;19.16;92.55
8705;BME280;4389;41.932;25.904;2022-11-20T00:17:53;100186.19;;;19.22;92.15
8705;BME280;4389;41.932;25.904;2022-11-20T00:20:20;100193.47;;;19.34;91.51
8705;BME280;4389;41.932;25.904;2022-11-20T00:22:47;100194.13;;;19.43;90.79
8705;BME280;4389;41.932;25.904;2022-11-20T00:25:14;100205.28;;;19.46;90.65
8705;BME280;4389;41.932;25.904;2022-11-20T00:27:41;100194.38;;;19.54;89.96
8705;BME280;4389;41.932;25.904;2022-11-20T00:30:08;100195.25;;;19.61;89.53
8705;BME280;4389;41.932;25.904;2022-11-20T00:32:35;100192.38;;;19.63;89.16
8705;BME280;4389;41.932;25.904;2022-11-20T00:35:04;100190.09;;;19.66;88.65
8705;BME280;4389;41.932;25.904;2022-11-20T00:37:31;100184.75;;;19.66;89.06
8705;BME280;4389;41.932;25.904;2022-11-20T00:39:58;100184.31;;;19.69;88.72
8705;BME280;4389;41.932;25.904;2022-11-20T00:42:25;100181.25;;;19.72;88.59
8705;BME280;4389;41.932;25.904;2022-11-20T00:44:52;100186.81;;;19.77;88.03
8705;BME280;4389;41.932;25.904;2022-11-20T00:47:19;100176.06;;;19.77;88.13
8705;BME280;4389;41.932;25.904;2022-11-20T00:49:45;100174.44;;;19.76;87.98
8705;BME280;4389;41.932;25.904;2022-11-20T00:52:14;100176.06;;;19.71;88.14
8705;BME280;4389;41.932;25.904;2022-11-20T00:54:41;100174.66;;;19.75;87.91
8705;BME280;4389;41.932;25.904;2022-11-20T00:57:07;100172.97;;;19.74;87.56
8705;BME280;4389;41.932;25.904;2022-11-20T00:59:34;100177.34;;;19.81;87.22
8705;BME280;4389;41.932;25.904;2022-11-20T01:02:01;100169.91;;;19.83;87.05
8705;BME280;4389;41.932;25.904;2022-11-20T01:04:28;100168.66;;;19.79;87.35
8705;BME280;4389;41.932;25.904;2022-11-20T01:06:55;100165.75;;;19.74;87.62
8705;BME280;4389;41.932;25.904;2022-11-20T01:09:23;100180.22;;;19.73;87.40
8705;BME280;4389;41.932;25.904;2022-11-20T01:11:50;100173.81;;;19.81;87.06
8705;BME280;4389;41.932;25.904;2022-11-20T01:14:19;100180.03;;;19.81;86.77
8705;BME280;4389;41.932;25.904;2022-11-20T01:16:47;100170.72;;;19.77;87.34
8705;BME280;4389;41.932;25.904;2022-11-20T01:19:16;100173.63;;;19.82;86.92
8705;BME280;4389;41.932;25.904;2022-11-20T01:21:45;100167.03;;;19.85;86.71
8705;BME280;4389;41.932;25.904;2022-11-20T01:24:15;100173.44;;;19.90;86.26
8705;BME280;4389;41.932;25.904;2022-11-20T01:26:45;100160.81;;;19.84;86.40
8705;BME280;4389;41.932;25.904;2022-11-20T01:29:15;100162.06;;;19.82;86.72
8705;BME280;4389;41.932;25.904;2022-11-20T01:31:43;100163.91;;;19.81;86.77
8705;BME280;4389;41.932;25.904;2022-11-20T01:34:11;100166.19;;;19.84;86.55
8705;BME280;4389;41.932;25.904;2022-11-20T01:36:40;100154.63;;;19.84;86.67
8705;BME280;4389;41.932;25.904;2022-11-20T01:39:10;100167.84;;;19.85;86.61
8705;BME280;4389;41.932;25.904;2022-11-20T01:41:38;100165.78;;;19.87;86.44
8705;BME280;4389;41.932;25.904;2022-11-20T01:44:45;100169.53;;;19.86;86.40
8705;BME280;4389;41.932;25.904;2022-11-20T01:47:16;100157.50;;;19.82;86.48
8705;BME280;4389;41.932;25.904;2022-11-20T01:49:47;100154.59;;;19.77;87.03
8705;BME280;4389;41.932;25.904;2022-11-20T01:52:18;100160.41;;;19.87;86.51
8705;BME280;4389;41.932;25.904;2022-11-20T01:54:48;100165.78;;;19.94;86.21
8705;BME280;4389;41.932;25.904;2022-11-20T01:57:18;100168.69;;;19.92;86.30
8705;BME280;4389;41.932;25.904;2022-11-20T01:59:51;100169.09;;;19.89;86.30
8705;BME280;4389;41.932;25.904;2022-11-20T02:02:21;100166.81;;;19.86;86.60
8705;BME280;4389;41.932;25.904;2022-11-20T02:04:49;100171.97;;;19.81;86.84
8705;BME280;4389;41.932;25.904;2022-11-20T02:07:18;100159.38;;;19.82;86.81
8705;BME280;4389;41.932;25.904;2022-11-20T02:09:46;100167.84;;;19.85;86.54
8705;BME280;4389;41.932;25.904;2022-11-20T02:12:14;100161.66;;;19.85;86.73
8705;BME280;4389;41.932;25.904;2022-11-20T02:14:56;100170.94;;;19.82;86.91
8705;BME280;4389;41.932;25.904;2022-11-20T02:17:23;100168.88;;;19.84;86.85
8705;BME280;4389;41.932;25.904;2022-11-20T02:19:51;100169.53;;;19.86;86.44
8705;BME280;4389;41.932;25.904;2022-11-20T02:22:23;100167.84;;;19.85;86.65
8705;BME280;4389;41.932;25.904;2022-11-20T02:24:52;100156.69;;;19.88;86.35
8705;BME280;4389;41.932;25.904;2022-11-20T02:27:20;100161.22;;;19.81;86.52
8705;BME280;4389;41.932;25.904;2022-11-20T02:29:50;100159.59;;;19.80;86.78
8705;BME280;4389;41.932;25.904;2022-11-20T02:32:19;100162.47;;;19.79;86.98
8705;BME280;4389;41.932;25.904;2022-11-20T02:34:46;100152.75;;;19.84;87.01
8705;BME280;4389;41.932;25.904;2022-11-20T02:37:14;100146.34;;;19.85;86.79
8705;BME280;4389;41.932;25.904;2022-11-20T02:39:41;100159.63;;;19.93;86.81
8705;BME280;4389;41.932;25.904;2022-11-20T02:42:10;100148.66;;;19.88;86.63
8705;BME280;4389;41.932;25.904;2022-11-20T02:44:37;100152.56;;;19.86;86.81
8705;BME280;4389;41.932;25.904;2022-11-20T02:47:04;100149.44;;;19.82;87.21
8705;BME280;4389;41.932;25.904;2022-11-20T02:49:30;100148.22;;;19.78;87.37
8705;BME280;4389;41.932;25.904;2022-11-20T02:51:57;100143.47;;;19.80;87.49
8705;BME280;4389;41.932;25.904;2022-11-20T02:54:24;100145.13;;;19.81;86.98
8705;BME280;4389;41.932;25.904;2022-11-20T02:56:51;100137.91;;;19.82;86.99
8705;BME280;4389;41.932;25.904;2022-11-20T02:59:19;100136.03;;;19.82;86.82
8705;BME280;4389;41.932;25.904;2022-11-20T03:01:46;100132.72;;;19.80;87.04
8705;BME280;4389;41.932;25.904;2022-11-20T03:04:13;100133.94;;;19.84;86.79
8705;BME280;4389;41.932;25.904;2022-11-20T03:06:40;100125.50;;;19.87;86.68
8705;BME280;4389;41.932;25.904;2022-11-20T03:09:07;100132.94;;;19.92;86.17
8705;BME280;4389;41.932;25.904;2022-11-20T03:11:34;100127.78;;;19.90;86.23
8705;BME280;4389;41.932;25.904;2022-11-20T03:14:02;100120.75;;;19.89;86.05
8705;BME280;4389;41.932;25.904;2022-11-20T03:16:31;100111.44;;;19.85;86.44
8705;BME280;4389;41.932;25.904;2022-11-20T03:18:59;100122.59;;;19.82;86.54
8705;BME280;4389;41.932;25.904;2022-11-20T03:21:26;100119.50;;;19.79;86.38
8705;BME280;4389;41.932;25.904;2022-11-20T03:23:53;100109.97;;;19.76;86.68
8705;BME280;4389;41.932;25.904;2022-11-20T03:26:21;100113.09;;;19.73;86.57
8705;BME280;4389;41.932;25.904;2022-11-20T03:28:50;100105.41;;;19.70;86.42
8705;BME280;4389;41.932;25.904;2022-11-20T03:31:19;100118.69;;;19.78;86.39
8705;BME280;4389;41.932;25.904;2022-11-20T03:33:48;100122.38;;;19.77;86.37
8705;BME280;4389;41.932;25.904;2022-11-20T03:36:16;100128.16;;;19.74;86.29
8705;BME280;4389;41.932;25.904;2022-11-20T03:38:44;100131.47;;;19.76;86.13
8705;BME280;4389;41.932;25.904;2022-11-20T03:41:13;100133.13;;;19.77;85.85
8705;BME280;4389;41.932;25.904;2022-11-20T03:43:40;100133.13;;;19.77;85.79
8705;BME280;4389;41.932;25.904;2022-11-20T03:46:08;100133.53;;;19.74;86.09
8705;BME280;4389;41.932;25.904;2022-11-20T03:48:34;100137.66;;;19.77;85.65
8705;BME280;4389;41.932;25.904;2022-11-20T03:51:11;100136.84;;;19.76;85.31
8705;BME280;4389;41.932;25.904;2022-11-20T03:53:38;100138.47;;;19.77;85.48
8705;BME280;4389;41.932;25.904;2022-11-20T03:56:06;100134.38;;;19.81;85.31
8705;BME280;4389;41.932;25.904;2022-11-20T03:58:33;100120.75;;;19.83;85.12
8705;BME280;4389;41.932;25.904;2022-11-20T04:01:08;100122.81;;;19.87;84.87
8705;BME280;4389;41.932;25.904;2022-11-20T04:03:35;100105.66;;;19.88;84.98
8705;BME280;4389;41.932;25.904;2022-11-20T04:06:04;100114.75;;;19.87;84.78
8705;BME280;4389;41.932;25.904;2022-11-20T04:08:33;100107.72;;;19.73;85.57
8705;BME280;4389;41.932;25.904;2022-11-20T04:11:10;100101.72;;;19.78;84.93
8705;BME280;4389;41.932;25.904;2022-11-20T04:13:38;100101.50;;;19.66;85.58
8705;BME280;4389;41.932;25.904;2022-11-20T04:16:05;100093.66;;;19.71;85.08
8705;BME280;4389;41.932;25.904;2022-11-20T04:18:34;100095.91;;;19.61;85.59
8705;BME280;4389;41.932;25.904;2022-11-20T04:21:02;100111.34;;;19.53;86.06
8705;BME280;4389;41.932;25.904;2022-11-20T04:23:29;100100.03;;;19.57;85.81
8705;BME280;4389;41.932;25.904;2022-11-20T04:26:02;100102.50;;;19.52;86.03
8705;BME280;4389;41.932;25.904;2022-11-20T04:28:29;100099.94;;;19.31;86.79
8705;BME280;4389;41.932;25.904;2022-11-20T04:31:02;100097.47;;;19.30;87.18
8705;BME280;4389;41.932;25.904;2022-11-20T04:33:30;100097.88;;;19.27;87.47
8705;BME280;4389;41.932;25.904;2022-11-20T04:36:01;100095.19;;;19.27;87.82
8705;BME280;4389;41.932;25.904;2022-11-20T04:38:28;100104.06;;;19.27;87.88
8705;BME280;4389;41.932;25.904;2022-11-20T04:40:59;100109.25;;;19.35;87.49
8705;BME280;4389;41.932;25.904;2022-11-20T04:43:27;100107.59;;;19.34;87.52
8705;BME280;4389;41.932;25.904;2022-11-20T04:45:55;100117.47;;;19.27;87.61
8705;BME280;4389;41.932;25.904;2022-11-20T04:48:23;100115.03;;;19.32;87.83
8705;BME280;4389;41.932;25.904;2022-11-20T04:50:50;100109.88;;;19.37;87.71
8705;BME280;4389;41.932;25.904;2022-11-20T04:53:17;100101.19;;;19.29;87.78
8705;BME280;4389;41.932;25.904;2022-11-20T04:55:44;100106.56;;;19.35;87.71
8705;BME280;4389;41.932;25.904;2022-11-20T04:58:11;100099.09;;;19.31;88.16
8705;BME280;4389;41.932;25.904;2022-11-20T05:00:40;100104.91;;;19.34;87.69
8705;BME280;4389;41.932;25.904;2022-11-20T05:03:07;100087.16;;;19.33;87.98
8705;BME280;4389;41.932;25.904;2022-11-20T05:05:34;100092.28;;;19.28;88.00
8705;BME280;4389;41.932;25.904;2022-11-20T05:08:01;100090.44;;;19.29;88.22
8705;BME280;4389;41.932;25.904;2022-11-20T05:10:28;100091.06;;;19.24;87.81
8705;BME280;4389;41.932;25.904;2022-11-20T05:12:56;100087.56;;;19.30;88.00
8705;BME280;4389;41.932;25.904;2022-11-20T05:15:24;100085.91;;;19.29;87.80
8705;BME280;4389;41.932;25.904;2022-11-20T05:17:53;100081.13;;;19.25;88.03
8705;BME280;4389;41.932;25.904;2022-11-20T05:20:20;100090.16;;;19.17;88.52
8705;BME280;4389;41.932;25.904;2022-11-20T05:22:47;100078.84;;;19.22;88.35
8705;BME280;4389;41.932;25.904;2022-11-20T05:25:14;100088.31;;;19.18;88.65
8705;BME280;4389;41.932;25.904;2022-11-20T05:27:41;100083.84;;;19.31;87.77
8705;BME280;4389;41.932;25.904;2022-11-20T05:30:09;100078.72;;;19.36;87.32
8705;BME280;4389;41.932;25.904;2022-11-20T05:32:36;100090.69;;;19.40;87.62
8705;BME280;4389;41.932;25.904;2022-11-20T05:35:06;100088.19;;;19.32;87.32
8705;BME280;4389;41.932;25.904;2022-11-20T05:37:33;100079.72;;;19.35;87.29
8705;BME280;4389;41.932;25.904;2022-11-20T05:40:00;100075.81;;;19.31;87.45
8705;BME280;4389;41.932;25.904;2022-11-20T05:42:30;100079.25;;;19.19;88.22
8705;BME280;4389;41.932;25.904;2022-11-20T05:44:57;100088.75;;;19.21;88.66
8705;BME280;4389;41.932;25.904;2022-11-20T05:47:24;100081.28;;;19.17;88.73
8705;BME280;4389;41.932;25.904;2022-11-20T05:49:51;100070.28;;;19.05;89.13
8705;BME280;4389;41.932;25.904;2022-11-20T05:52:20;100079.63;;;19.16;88.93
8705;BME280;4389;41.932;25.904;2022-11-20T05:54:46;100080.94;;;19.26;88.39
8705;BME280;4389;41.932;25.904;2022-11-20T05:57:13;100075.19;;;19.42;87.63
8705;BME280;4389;41.932;25.904;2022-11-20T05:59:40;100079.38;;;19.51;87.19
8705;BME280;4389;41.932;25.904;2022-11-20T06:02:07;100089.31;;;19.57;86.65
8705;BME280;4389;41.932;25.904;2022-11-20T06:04:34;100095.91;;;19.61;86.61
8705;BME280;4389;41.932;25.904;2022-11-20T06:07:01;100102.13;;;19.62;86.59
8705;BME280;4389;41.932;25.904;2022-11-20T06:09:29;100106.25;;;19.64;86.34
8705;BME280;4389;41.932;25.904;2022-11-20T06:11:56;100097.78;;;19.67;86.21
8705;BME280;4389;41.932;25.904;2022-11-20T06:14:23;100105.41;;;19.64;86.35
8705;BME280;4389;41.932;25.904;2022-11-20T06:16:49;100119.88;;;19.69;85.56
8705;BME280;4389;41.932;25.904;2022-11-20T06:19:16;100118.41;;;19.60;86.62
8705;BME280;4389;41.932;25.904;2022-11-20T06:21:43;100123.56;;;19.55;86.99
8705;BME280;4389;41.932;25.904;2022-11-20T06:24:10;100135.09;;;19.43;87.54
8705;BME280;4389;41.932;25.904;2022-11-20T06:26:38;100134.66;;;19.33;88.31
8705;BME280;4389;41.932;25.904;2022-11-20T06:29:05;100144.13;;;19.35;88.22
8705;BME280;4389;41.932;25.904;2022-11-20T06:31:32;100133.81;;;19.39;88.05
8705;BME280;4389;41.932;25.904;2022-11-20T06:34:02;100146.97;;;19.27;88.47
8705;BME280;4389;41.932;25.904;2022-11-20T06:36:29;100144.31;;;19.27;88.63
8705;BME280;4389;41.932;25.904;2022-11-20T06:38:56;100150.94;;;19.31;88.26
8705;BME280;4389;41.932;25.904;2022-11-20T06:41:23;100146.63;;;19.37;88.26
8705;BME280;4389;41.932;25.904;2022-11-20T06:43:52;100156.75;;;19.41;87.94
8705;BME280;4389;41.932;25.904;2022-11-20T06:46:19;100150.78;;;19.46;88.06
8705;BME280;4389;41.932;25.904;2022-11-20T06:48:47;100148.78;;;19.61;87.20
8705;BME280;4389;41.932;25.904;2022-11-20T06:51:15;100153.31;;;19.67;86.81
8705;BME280;4389;41.932;25.904;2022-11-20T06:53:41;100149.19;;;19.58;86.64
8705;BME280;4389;41.932;25.904;2022-11-20T06:56:08;100140.94;;;19.59;86.99
8705;BME280;4389;41.932;25.904;2022-11-20T06:58:36;100153.06;;;19.49;87.69
8705;BME280;4389;41.932;25.904;2022-11-20T07:01:06;100156.41;;;19.57;87.17
8705;BME280;4389;41.932;25.904;2022-11-20T07:03:33;100154.97;;;19.61;86.91
8705;BME280;4389;41.932;25.904;2022-11-20T07:06:01;100140.50;;;19.56;87.15
8705;BME280;4389;41.932;25.904;2022-11-20T07:08:28;100148.00;;;19.73;86.74
8705;BME280;4389;41.932;25.904;2022-11-20T07:10:58;100144.28;;;19.74;86.13
8705;BME280;4389;41.932;25.904;2022-11-20T07:13:26;100142.66;;;19.86;85.78
8705;BME280;4389;41.932;25.904;2022-11-20T07:15:53;100135.22;;;19.88;85.25
8705;BME280;4389;41.932;25.904;2022-11-20T07:18:21;100133.13;;;19.90;84.95
8705;BME280;4389;41.932;25.904;2022-11-20T07:20:48;100138.13;;;19.93;84.48
8705;BME280;4389;41.932;25.904;2022-11-20T07:23:15;100132.75;;;20.00;84.17
8705;BME280;4389;41.932;25.904;2022-11-20T07:25:42;100135.25;;;20.01;84.02
8705;BME280;4389;41.932;25.904;2022-11-20T07:28:09;100139.34;;;19.97;83.82
8705;BME280;4389;41.932;25.904;2022-11-20T07:30:36;100141.47;;;20.08;83.33
8705;BME280;4389;41.932;25.904;2022-11-20T07:33:03;100138.59;;;20.16;83.30
8705;BME280;4389;41.932;25.904;2022-11-20T07:35:31;100146.47;;;20.18;82.74
8705;BME280;4389;41.932;25.904;2022-11-20T07:37:58;100151.22;;;20.22;82.67
8705;BME280;4389;41.932;25.904;2022-11-20T07:40:25;100138.81;;;20.28;82.20
8705;BME280;4389;41.932;25.904;2022-11-20T07:42:54;100146.66;;;20.29;82.35
8705;BME280;4389;41.932;25.904;2022-11-20T07:45:22;100155.75;;;20.35;82.29
8705;BME280;4389;41.932;25.904;2022-11-20T07:47:50;100147.88;;;20.33;82.26
8705;BME280;4389;41.932;25.904;2022-11-20T07:50:17;100157.22;;;20.37;82.07
8705;BME280;4389;41.932;25.904;2022-11-20T07:52:46;100162.59;;;20.37;82.08
8705;BME280;4389;41.932;25.904;2022-11-20T07:55:14;100158.03;;;20.44;81.94
8705;BME280;4389;41.932;25.904;2022-11-20T07:57:41;100159.25;;;20.48;81.74
8705;BME280;4389;41.932;25.904;2022-11-20T08:00:10;100159.03;;;20.56;81.45
8705;BME280;4389;41.932;25.904;2022-11-20T08:02:37;100156.34;;;20.56;81.01
8705;BME280;4389;41.932;25.904;2022-11-20T08:05:06;100151.59;;;20.65;80.56
8705;BME280;4389;41.932;25.904;2022-11-20T08:07:36;100152.63;;;20.70;80.20
8705;BME280;4389;41.932;25.904;2022-11-20T08:10:05;100147.25;;;20.77;80.05
8705;BME280;4389;41.932;25.904;2022-11-20T08:12:32;100155.72;;;20.80;80.05
8705;BME280;4389;41.932;25.904;2022-11-20T08:15:16;100148.06;;;20.77;79.92
8705;BME280;4389;41.932;25.904;2022-11-20T08:17:43;100156.13;;;20.77;79.82
8705;BME280;4389;41.932;25.904;2022-11-20T08:20:10;100161.50;;;20.77;79.69
8705;BME280;4389;41.932;25.904;2022-11-20T08:22:37;100152.44;;;20.78;79.61
8705;BME280;4389;41.932;25.904;2022-11-20T08:25:06;100150.75;;;20.77;79.86
8705;BME280;4389;41.932;25.904;2022-11-20T08:27:33;100146.66;;;20.75;79.85
8705;BME280;4389;41.932;25.904;2022-11-20T08:30:00;100151.78;;;20.76;79.49
8705;BME280;4389;41.932;25.904;2022-11-20T08:32:27;100167.13;;;20.76;79.70
8705;BME280;4389;41.932;25.904;2022-11-20T08:34:53;100166.88;;;20.77;79.45
8705;BME280;4389;41.932;25.904;2022-11-20T08:37:20;100160.50;;;20.78;78.86
8705;BME280;4389;41.932;25.904;2022-11-20T08:39:47;100164.22;;;20.84;79.10
8705;BME280;4389;41.932;25.904;2022-11-20T08:42:15;100153.06;;;20.87;79.11
8705;BME280;4389;41.932;25.904;2022-11-20T08:44:42;100159.28;;;20.87;78.83
8705;BME280;4389;41.932;25.904;2022-11-20T08:47:09;100150.16;;;20.88;78.66
8705;BME280;4389;41.932;25.904;2022-11-20T08:49:36;100150.56;;;20.92;78.58
8705;BME280;4389;41.932;25.904;2022-11-20T08:52:03;100146.03;;;20.92;79.06
8705;BME280;4389;41.932;25.904;2022-11-20T08:54:32;100140.81;;;20.97;78.25
8705;BME280;4389;41.932;25.904;2022-11-20T08:56:58;100144.53;;;20.96;78.21
8705;BME280;4389;41.932;25.904;2022-11-20T08:59:27;100135.25;;;20.92;78.28
8705;BME280;4389;41.932;25.904;2022-11-20T09:01:54;100132.34;;;21.00;77.97
8705;BME280;4389;41.932;25.904;2022-11-20T09:04:21;100138.13;;;20.97;77.99
8705;BME280;4389;41.932;25.904;2022-11-20T09:06:47;100134.00;;;21.01;77.63
8705;BME280;4389;41.932;25.904;2022-11-20T09:09:16;100135.63;;;21.02;77.96
8705;BME280;4389;41.932;25.904;2022-11-20T09:11:43;100141.84;;;21.03;78.13
8705;BME280;4389;41.932;25.904;2022-11-20T09:14:10;100136.88;;;21.06;78.58
8705;BME280;4389;41.932;25.904;2022-11-20T09:16:38;100129.41;;;21.08;78.03
8705;BME280;4389;41.932;25.904;2022-11-20T09:19:05;100119.06;;;21.05;78.24
8705;BME280;4389;41.932;25.904;2022-11-20T09:21:31;100114.47;;;21.12;77.81
8705;BME280;4389;41.932;25.904;2022-11-20T09:23:58;100097.88;;;21.22;77.55
8705;BME280;4389;41.932;25.904;2022-11-20T09:26:25;100099.06;;;21.32;77.58
8705;BME280;4389;41.932;25.904;2022-11-20T09:28:52;100100.31;;;21.36;77.72
8705;BME280;4389;41.932;25.904;2022-11-20T09:31:22;100104.06;;;21.35;77.48
8705;BME280;4389;41.932;25.904;2022-11-20T09:33:50;100104.47;;;21.32;77.39
8705;BME280;4389;41.932;25.904;2022-11-20T09:36:17;100104.47;;;21.32;77.35
8705;BME280;4389;41.932;25.904;2022-11-20T09:38:45;100099.66;;;21.41;77.10
8705;BME280;4389;41.932;25.904;2022-11-20T09:41:27;100099.41;;;21.49;76.92
8705;BME280;4389;41.932;25.904;2022-11-20T09:44:04;100113.06;;;21.54;76.70
8705;BME280;4389;41.932;25.904;2022-11-20T09:46:40;100106.44;;;21.56;76.48
8705;BME280;4389;41.932;25.904;2022-11-20T09:49:24;100101.06;;;21.50;76.34
8705;BME280;4389;41.932;25.904;2022-11-20T09:51:58;100097.97;;;21.46;76.62
8705;BME280;4389;41.932;25.904;2022-11-20T09:54:28;100089.47;;;21.49;76.25
8705;BME280;4389;41.932;25.904;2022-11-20T09:56:59;100099.41;;;21.49;76.00
8705;BME280;4389;41.932;25.904;2022-11-20T09:59:35;100096.94;;;21.47;75.71
8705;BME280;4389;41.932;25.904;2022-11-20T10:02:15;100085.31;;;21.53;75.86
8705;BME280;4389;41.932;25.904;2022-11-20T10:04:49;100091.50;;;21.67;75.70
8705;BME280;4389;41.932;25.904;2022-11-20T10:07:21;100085.97;;;21.86;75.05
8705;BME280;4389;41.932;25.904;2022-11-20T10:09:51;100076.34;;;21.97;74.19
8705;BME280;4389;41.932;25.904;2022-11-20T10:12:24;100075.88;;;22.06;73.87
8705;BME280;4389;41.932;25.904;2022-11-20T10:15:06;100062.03;;;22.21;72.86
8705;BME280;4389;41.932;25.904;2022-11-20T10:18:05;100077.19;;;22.46;71.89
8705;BME280;4389;41.932;25.904;2022-11-20T10:20:43;100069.72;;;22.66;70.30
8705;BME280;4389;41.932;25.904;2022-11-20T10:23:24;100072.13;;;22.92;68.97
8705;BME280;4389;41.932;25.904;2022-11-20T10:26:01;100072.41;;;23.02;68.15
8705;BME280;4389;41.932;25.904;2022-11-20T10:28:37;100070.31;;;23.04;67.17
8705;BME280;4389;41.932;25.904;2022-11-20T10:31:10;100076.31;;;23.24;66.74
8705;BME280;4389;41.932;25.904;2022-11-20T10:33:41;100061.59;;;23.38;65.77
8705;BME280;4389;41.932;25.904;2022-11-20T10:36:15;100062.50;;;23.32;66.01
8705;BME280;4389;41.932;25.904;2022-11-20T10:38:47;100045.94;;;23.29;66.06
8705;BME280;4389;41.932;25.904;2022-11-20T10:41:21;100048.09;;;23.38;66.18
8705;BME280;4389;41.932;25.904;2022-11-20T10:43:58;100054.44;;;23.44;66.28
8705;BME280;4389;41.932;25.904;2022-11-20T10:46:37;100058.38;;;23.59;65.61
8705;BME280;4389;41.932;25.904;2022-11-20T10:49:12;100052.53;;;23.62;65.18
8705;BME280;4389;41.932;25.904;2022-11-20T10:51:56;100057.84;;;23.69;64.94
8705;BME280;4389;41.932;25.904;2022-11-20T10:54:32;100045.38;;;23.38;66.06
8705;BME280;4389;41.932;25.904;2022-11-20T10:57:07;100060.97;;;23.25;66.63
8705;BME280;4389;41.932;25.904;2022-11-20T10:59:55;100063.13;;;23.16;67.58
8705;BME280;4389;41.932;25.904;2022-11-20T11:02:32;100067.50;;;23.17;67.71
8705;BME280;4389;41.932;25.904;2022-11-20T11:05:08;100069.28;;;23.23;67.66
8705;BME280;4389;41.932;25.904;2022-11-20T11:07:39;100054.13;;;23.04;67.42
8705;BME280;4389;41.932;25.904;2022-11-20T11:12:43;100040.50;;;22.99;68.08
8705;BME280;4389;41.932;25.904;2022-11-20T11:15:14;100051.66;;;23.03;68.19
8705;BME280;4389;41.932;25.904;2022-11-20T11:17:47;100032.75;;;22.85;68.42
8705;BME280;4389;41.932;25.904;2022-11-20T11:20:18;100036.06;;;22.87;68.63
8705;BME280;4389;41.932;25.904;2022-11-20T11:22:48;100034.19;;;22.69;69.34
8705;BME280;4389;41.932;25.904;2022-11-20T11:25:21;100029.72;;;22.63;68.77
8705;BME280;4389;41.932;25.904;2022-11-20T11:27:49;100026.25;;;22.74;68.96
8705;BME280;4389;41.932;25.904;2022-11-20T11:30:18;100018.06;;;22.99;67.76
8705;BME280;4389;41.932;25.904;2022-11-20T11:32:46;100012.13;;;23.08;67.44
8705;BME280;4389;41.932;25.904;2022-11-20T11:35:21;100011.66;;;23.29;67.13
8705;BME280;4389;41.932;25.904;2022-11-20T11:37:50;100005.97;;;23.49;66.10
8705;BME280;4389;41.932;25.904;2022-11-20T11:40:21;99995.38;;;23.47;66.29
8705;BME280;4389;41.932;25.904;2022-11-20T11:42:53;99998.69;;;23.49;65.94
8705;BME280;4389;41.932;25.904;2022-11-20T11:45:21;99992.09;;;23.45;66.02
8705;BME280;4389;41.932;25.904;2022-11-20T11:47:48;99994.97;;;23.32;66.09
8705;BME280;4389;41.932;25.904;2022-11-20T11:50:20;99993.66;;;23.23;66.63
8705;BME280;4389;41.932;25.904;2022-11-20T11:53:02;99987.25;;;23.36;66.09
8705;BME280;4389;41.932;25.904;2022-11-20T11:55:35;99993.19;;;23.26;65.85
8705;BME280;4389;41.932;25.904;2022-11-20T11:58:16;99967.59;;;23.29;65.81
8705;BME280;4389;41.932;25.904;2022-11-20T12:00:51;99962.25;;;23.40;65.11
8705;BME280;4389;41.932;25.904;2022-11-20T12:03:25;99960.88;;;23.49;64.54
8705;BME280;4389;41.932;25.904;2022-11-20T12:05:57;99957.16;;;23.73;64.07
8705;BME280;4389;41.932;25.904;2022-11-20T12:08:29;99937.16;;;23.74;63.42
8705;BME280;4389;41.932;25.904;2022-11-20T12:11:03;99940.25;;;23.89;62.98
8705;BME280;4389;41.932;25.904;2022-11-20T12:13:39;99942.72;;;23.91;62.51
8705;BME280;4389;41.932;25.904;2022-11-20T12:16:11;99949.19;;;24.01;62.30
8705;BME280;4389;41.932;25.904;2022-11-20T12:18:40;99947.31;;;23.90;62.99
8705;BME280;4389;41.932;25.904;2022-11-20T12:21:18;99947.97;;;23.74;62.62
8705;BME280;4389;41.932;25.904;2022-11-20T12:24:10;99943.78;;;24.01;61.82
8705;BME280;4389;41.932;25.904;2022-11-20T12:26:51;99932.41;;;23.99;61.27
8705;BME280;4389;41.932;25.904;2022-11-20T12:29:29;99940.25;;;23.89;61.19
8705;BME280;4389;41.932;25.904;2022-11-20T12:32:35;99935.56;;;23.96;61.21
8705;BME280;4389;41.932;25.904;2022-11-20T12:35:20;99923.66;;;23.86;61.37
8705;BME280;4389;41.932;25.904;2022-11-20T12:37:57;99909.91;;;23.64;61.26
8705;BME280;4389;41.932;25.904;2022-11-20T12:40:35;99933.97;;;23.54;62.11
8705;BME280;4389;41.932;25.904;2022-11-20T12:43:12;99930.81;;;23.57;62.16
8705;BME280;4389;41.932;25.904;2022-11-20T12:46:18;99925.06;;;23.65;61.87
8705;BME280;4389;41.932;25.904;2022-11-20T12:48:57;99922.94;;;23.56;62.23
8705;BME280;4389;41.932;25.904;2022-11-20T12:51:57;99911.97;;;23.39;62.26
8705;BME280;4389;41.932;25.904;2022-11-20T12:57:46;99930.97;;;23.21;63.10
8705;BME280;4389;41.932;25.904;2022-11-20T13:00:17;99924.38;;;23.17;63.42
8705;BME280;4389;41.932;25.904;2022-11-20T13:03:00;99922.78;;;22.98;63.84
8705;BME280;4389;41.932;25.904;2022-11-20T13:05:34;99920.06;;;22.98;64.48
8705;BME280;4389;41.932;25.904;2022-11-20T13:08:08;99924.53;;;23.04;64.38
8705;BME280;4389;41.932;25.904;2022-11-20T13:10:45;99931.13;;;23.08;64.39
8705;BME280;4389;41.932;25.904;2022-11-20T13:13:18;99925.38;;;23.05;64.33
8705;BME280;4389;41.932;25.904;2022-11-20T13:15:54;99926.88;;;23.01;64.76
8705;BME280;4389;41.932;25.904;2022-11-20T13:18:22;99925.19;;;22.88;65.12
8705;BME280;4389;41.932;25.904;2022-11-20T13:20:49;99933.41;;;22.93;65.06
8705;BME280;4389;41.932;25.904;2022-11-20T13:23:24;99941.84;;;22.85;65.02